Time;durP1;ratioP1;P1;durP2;ratioP2;P2;SDS_P1;SDS_P2;PMS_P1;PMS_P2;Temp;Humidity;BMP_temperature;BMP_pressure;BME280_temperature;BME280_humidity;BME280_pressure;Samples;Min_cycle;Max_cycle;Signal;HPM_P1;HPM_P2
2021/08/30 00:00:54;;;;;;;0.00;0.00;;;;;;;;;;10535818;28;20047;-71
2021/08/30 00:05:57;;;;;;;0.00;0.00;;;;;;;;;;10537196;28;20043;-71
2021/08/30 00:11:00;;;;;;;0.00;0.00;;;;;;;;;;10532159;28;20048;-71
2021/08/30 00:16:04;;;;;;;0.00;0.00;;;;;;;;;;10521322;28;20094;-71
2021/08/30 00:21:08;;;;;;;0.00;0.00;;;;;;;;;;10517481;28;20097;-71
2021/08/30 00:26:12;;;;;;;0.00;0.00;;;;;;;;;;10516817;28;20097;-71
2021/08/30 00:31:17;;;;;;;0.00;0.00;;;;;;;;;;10534291;28;20036;-71
2021/08/30 00:36:22;;;;;;;0.00;0.00;;;;;;;;;;10534050;28;20038;-71
2021/08/30 00:41:26;;;;;;;0.00;0.00;;;;;;;;;;10534300;28;20044;-71
2021/08/30 00:46:31;;;;;;;0.00;0.00;;;;;;;;;;10533881;28;20040;-71
2021/08/30 00:51:34;;;;;;;0.00;0.00;;;;;;;;;;10533950;28;20040;-72
2021/08/30 00:56:36;;;;;;;0.10;0.10;;;;;;;;;;10534128;28;20039;-72
2021/08/30 01:01:40;;;;;;;0.20;0.20;;;;;;;;;;10516037;28;20043;-72
2021/08/30 01:06:45;;;;;;;0.00;0.00;;;;;;;;;;10514230;28;20036;-72
2021/08/30 01:11:51;;;;;;;0.00;0.00;;;;;;;;;;10538527;28;20498;-71
2021/08/30 01:16:57;;;;;;;0.00;0.00;;;;;;;;;;10541697;28;20039;-71
2021/08/30 01:21:59;;;;;;;0.00;0.00;;;;;;;;;;10534113;28;20046;-71
2021/08/30 01:27:04;;;;;;;0.00;0.00;;;;;;;;;;10532602;28;20435;-71
2021/08/30 01:32:09;;;;;;;0.00;0.00;;;;;;;;;;10542654;28;20135;-71
2021/08/30 01:37:13;;;;;;;0.00;0.00;;;;;;;;;;10511298;28;20101;-71
2021/08/30 01:42:18;;;;;;;0.00;0.00;;;;;;;;;;10534156;28;20047;-71
2021/08/30 01:47:21;;;;;;;0.00;0.00;;;;;;;;;;10515660;28;20494;-71
2021/08/30 01:52:25;;;;;;;0.00;0.00;;;;;;;;;;10535747;28;20051;-71
2021/08/30 01:57:28;;;;;;;0.00;0.00;;;;;;;;;;10531378;28;20398;-71
2021/08/30 02:02:31;;;;;;;0.00;0.00;;;;;;;;;;10512398;28;20101;-71
2021/08/30 02:07:35;;;;;;;0.00;0.00;;;;;;;;;;10511274;28;20044;-71
2021/08/30 02:12:38;;;;;;;0.00;0.00;;;;;;;;;;10533271;28;20052;-71
2021/08/30 02:17:45;;;;;;;0.00;0.00;;;;;;;;;;10537797;28;20044;-71
2021/08/30 02:22:50;;;;;;;0.00;0.00;;;;;;;;;;10530348;28;20044;-71
2021/08/30 02:27:54;;;;;;;0.00;0.00;;;;;;;;;;10531630;28;20489;-71
2021/08/30 02:33:02;;;;;;;0.00;0.00;;;;;;;;;;10509837;28;20552;-71
2021/08/30 02:38:07;;;;;;;0.00;0.00;;;;;;;;;;10509026;28;20056;-71
2021/08/30 02:43:10;;;;;;;0.00;0.00;;;;;;;;;;10533990;28;20412;-71
2021/08/30 02:48:13;;;;;;;0.00;0.00;;;;;;;;;;10534519;28;20055;-71
2021/08/30 02:53:17;;;;;;;0.00;0.00;;;;;;;;;;10537344;28;20032;-71
2021/08/30 02:58:21;;;;;;;0.00;0.00;;;;;;;;;;10537791;28;20405;-71
2021/08/30 03:03:24;;;;;;;0.00;0.00;;;;;;;;;;10550330;27;20135;-71
2021/08/30 03:08:28;;;;;;;0.00;0.00;;;;;;;;;;10524459;28;20040;-71
2021/08/30 03:13:33;;;;;;;0.00;0.00;;;;;;;;;;10538580;28;20044;-70
2021/08/30 03:18:39;;;;;;;0.00;0.00;;;;;;;;;;10545891;28;20044;-72
2021/08/30 03:23:43;;;;;;;0.10;0.10;;;;;;;;;;10535936;28;20044;-73
2021/08/30 03:28:46;;;;;;;0.00;0.00;;;;;;;;;;10537835;28;20132;-75
2021/08/30 03:33:50;;;;;;;0.00;0.00;;;;;;;;;;10533603;28;20039;-75
2021/08/30 03:38:57;;;;;;;0.00;0.00;;;;;;;;;;10515111;28;20047;-75
2021/08/30 03:44:01;;;;;;;0.00;0.00;;;;;;;;;;10533198;28;20047;-74
2021/08/30 03:49:04;;;;;;;0.00;0.00;;;;;;;;;;10535849;28;20048;-74
2021/08/30 03:54:09;;;;;;;0.00;0.00;;;;;;;;;;10537172;28;20032;-74
2021/08/30 03:59:13;;;;;;;0.00;0.00;;;;;;;;;;10533802;28;20044;-76
2021/08/30 04:04:20;;;;;;;0.00;0.00;;;;;;;;;;10536141;28;20081;-74
2021/08/30 04:09:24;;;;;;;0.00;0.00;;;;;;;;;;10549028;28;20117;-76
2021/08/30 04:14:27;;;;;;;0.00;0.00;;;;;;;;;;10536187;28;20060;-75
2021/08/30 04:19:31;;;;;;;0.00;0.00;;;;;;;;;;10540449;28;20511;-75
2021/08/30 04:24:41;;;;;;;0.00;0.00;;;;;;;;;;10537318;28;20058;-75
2021/08/30 04:29:44;;;;;;;0.00;0.00;;;;;;;;;;10538086;28;20054;-75
2021/08/30 04:34:47;;;;;;;0.00;0.00;;;;;;;;;;10539891;28;20036;-75
2021/08/30 04:39:51;;;;;;;0.00;0.00;;;;;;;;;;10538246;28;20120;-75
2021/08/30 04:44:56;;;;;;;0.00;0.00;;;;;;;;;;10535451;28;20047;-75
2021/08/30 04:50:00;;;;;;;0.05;0.05;;;;;;;;;;10534517;28;20039;-75
2021/08/30 04:55:04;;;;;;;0.00;0.00;;;;;;;;;;10519263;28;20047;-74
2021/08/30 05:00:08;;;;;;;0.00;0.00;;;;;;;;;;10537052;28;20055;-75
2021/08/30 05:05:11;;;;;;;0.00;0.00;;;;;;;;;;10538220;28;20474;-75
2021/08/30 05:10:15;;;;;;;0.00;0.00;;;;;;;;;;10545859;28;20474;-75
2021/08/30 05:15:34;;;;;;;0.00;0.00;;;;;;;;;;10543698;28;20036;-75
2021/08/30 05:21:11;;;;;;;0.00;0.00;;;;;;;;;;10539161;28;20549;-76
2021/08/30 05:26:18;;;;;;;0.00;0.00;;;;;;;;;;10516221;28;20051;-74
2021/08/30 05:31:20;;;;;;;0.00;0.00;;;;;;;;;;10515990;28;20054;-75
2021/08/30 05:36:24;;;;;;;0.00;0.00;;;;;;;;;;10536308;28;20040;-74
2021/08/30 05:41:28;;;;;;;0.00;0.00;;;;;;;;;;10531936;28;20515;-74
2021/08/30 05:46:32;;;;;;;0.00;0.00;;;;;;;;;;10511744;28;20097;-75
2021/08/30 05:51:41;;;;;;;0.00;0.00;;;;;;;;;;10528133;28;20052;-74
2021/08/30 05:56:45;;;;;;;0.00;0.00;;;;;;;;;;10511908;28;20043;-73
2021/08/30 06:01:48;;;;;;;0.00;0.00;;;;;;;;;;10529121;28;20412;-73
2021/08/30 06:06:52;;;;;;;0.00;0.00;;;;;;;;;;10512735;28;20040;-74
2021/08/30 06:11:56;;;;;;;0.00;0.00;;;;;;;;;;10533454;28;20519;-74
2021/08/30 06:16:59;;;;;;;0.00;0.00;;;;;;;;;;10531380;28;20048;-73
2021/08/30 06:22:02;;;;;;;0.00;0.00;;;;;;;;;;10532649;28;20396;-74
2021/08/30 06:27:09;;;;;;;0.00;0.00;;;;;;;;;;10531411;28;20123;-76
2021/08/30 06:32:12;;;;;;;0.00;0.00;;;;;;;;;;10539057;28;20074;-74
2021/08/30 06:37:16;;;;;;;0.00;0.00;;;;;;;;;;10541161;28;20043;-73
2021/08/30 06:42:21;;;;;;;0.00;0.00;;;;;;;;;;10541068;28;20044;-76
2021/08/30 06:47:25;;;;;;;0.00;0.00;;;;;;;;;;10540364;28;20036;-76
2021/08/30 06:52:29;;;;;;;0.00;0.00;;;;;;;;;;10540537;28;20569;-74
2021/08/30 06:57:35;;;;;;;0.00;0.00;;;;;;;;;;10541087;28;20043;-75
2021/08/30 07:02:39;;;;;;;0.00;0.00;;;;;;;;;;10538918;28;20131;-76
2021/08/30 07:07:46;;;;;;;0.00;0.00;;;;;;;;;;10538304;28;20040;-76
2021/08/30 07:12:51;;;;;;;0.00;0.00;;;;;;;;;;10545871;28;20050;-76
2021/08/30 07:17:55;;;;;;;0.00;0.00;;;;;;;;;;10539428;28;20039;-77
2021/08/30 07:23:04;;;;;;;0.00;0.00;;;;;;;;;;10539064;28;20044;-76
2021/08/30 07:28:08;;;;;;;0.00;0.00;;;;;;;;;;10538211;28;20066;-75
2021/08/30 07:33:11;;;;;;;0.00;0.00;;;;;;;;;;10537969;28;20398;-76
2021/08/30 07:38:14;;;;;;;0.00;0.00;;;;;;;;;;10537032;28;20048;-75
2021/08/30 07:43:19;;;;;;;0.00;0.00;;;;;;;;;;10535752;28;20040;-75
2021/08/30 07:48:21;;;;;;;0.00;0.00;;;;;;;;;;10532953;28;20039;-75
2021/08/30 07:53:27;;;;;;;0.00;0.00;;;;;;;;;;10536776;28;20048;-75
2021/08/30 07:58:31;;;;;;;0.00;0.00;;;;;;;;;;10538281;28;20474;-75
2021/08/30 08:03:41;;;;;;;0.00;0.00;;;;;;;;;;10535961;28;20055;-76
2021/08/30 08:08:43;;;;;;;0.00;0.00;;;;;;;;;;10535364;28;20060;-76
2021/08/30 08:13:47;;;;;;;0.00;0.00;;;;;;;;;;10541154;28;20855;-76
2021/08/30 08:18:52;;;;;;;0.00;0.00;;;;;;;;;;10535323;28;20036;-74
2021/08/30 08:23:55;;;;;;;0.00;0.00;;;;;;;;;;10536912;28;20054;-74
2021/08/30 08:29:00;;;;;;;0.00;0.00;;;;;;;;;;10536925;28;20036;-74
2021/08/30 08:34:03;;;;;;;0.00;0.00;;;;;;;;;;10533649;28;20126;-75
2021/08/30 08:39:07;;;;;;;0.00;0.00;;;;;;;;;;10534907;28;20050;-74
2021/08/30 08:44:11;;;;;;;0.00;0.00;;;;;;;;;;10512094;28;20068;-75
2021/08/30 08:49:15;;;;;;;0.00;0.00;;;;;;;;;;10512517;28;20036;-75
2021/08/30 08:54:17;;;;;;;0.00;0.00;;;;;;;;;;10510603;28;20043;-73
2021/08/30 08:59:21;;;;;;;0.00;0.00;;;;;;;;;;10514960;28;20036;-73
2021/08/30 09:04:37;;;;;;;0.00;0.00;;;;;;;;;;10493199;28;20429;-74
2021/08/30 09:09:49;;;;;;;0.00;0.00;;;;;;;;;;10494545;28;20127;-73
2021/08/30 09:14:54;;;;;;;0.00;0.00;;;;;;;;;;10520675;28;20050;-74
2021/08/30 09:20:00;;;;;;;0.00;0.00;;;;;;;;;;10489245;28;20082;-73
2021/08/30 09:25:05;;;;;;;0.00;0.00;;;;;;;;;;10512511;28;20068;-72
2021/08/30 09:30:12;;;;;;;0.00;0.00;;;;;;;;;;10496963;28;20040;-72
2021/08/30 09:35:16;;;;;;;0.00;0.00;;;;;;;;;;10510098;28;20051;-73
2021/08/30 09:40:20;;;;;;;0.00;0.00;;;;;;;;;;10510348;28;20036;-75
2021/08/30 09:45:27;;;;;;;0.00;0.00;;;;;;;;;;10504939;28;20048;-75
2021/08/30 09:50:30;;;;;;;0.00;0.00;;;;;;;;;;10493782;28;20080;-74
2021/08/30 09:55:35;;;;;;;0.00;0.00;;;;;;;;;;10510826;28;20044;-74
2021/08/30 10:00:43;;;;;;;0.00;0.00;;;;;;;;;;10501399;28;20646;-75
2021/08/30 10:05:51;;;;;;;0.00;0.00;;;;;;;;;;10511674;28;20084;-74
2021/08/30 10:10:57;;;;;;;0.00;0.00;;;;;;;;;;10493293;28;20085;-74
2021/08/30 10:16:02;;;;;;;0.00;0.00;;;;;;;;;;10517734;28;20048;-74
2021/08/30 10:21:16;;;;;;;0.00;0.00;;;;;;;;;;10482624;28;20041;-74
2021/08/30 10:26:18;;;;;;;0.00;0.00;;;;;;;;;;10509087;28;20378;-74
2021/08/30 10:31:25;;;;;;;0.00;0.00;;;;;;;;;;10509491;28;20040;-75
2021/08/30 10:36:29;;;;;;;0.00;0.00;;;;;;;;;;10492496;28;20043;-74
2021/08/30 10:41:34;;;;;;;0.00;0.00;;;;;;;;;;10504770;28;20080;-74
2021/08/30 10:46:39;;;;;;;0.00;0.00;;;;;;;;;;10508241;28;20123;-74
2021/08/30 10:51:43;;;;;;;0.00;0.00;;;;;;;;;;10515535;28;20044;-75
2021/08/30 10:56:56;;;;;;;0.00;0.00;;;;;;;;;;10496406;28;20503;-74
2021/08/30 11:02:03;;;;;;;0.00;0.00;;;;;;;;;;10505607;28;20091;-75
2021/08/30 11:07:08;;;;;;;0.00;0.00;;;;;;;;;;10489693;28;20052;-74
2021/08/30 11:12:11;;;;;;;0.00;0.00;;;;;;;;;;10489289;28;20052;-74
2021/08/30 11:17:15;;;;;;;0.00;0.00;;;;;;;;;;10504458;28;20032;-74
2021/08/30 11:22:18;;;;;;;0.00;0.00;;;;;;;;;;10512522;28;20462;-74
2021/08/30 11:27:27;;;;;;;0.00;0.00;;;;;;;;;;10513144;28;20040;-74
2021/08/30 11:32:32;;;;;;;0.00;0.00;;;;;;;;;;10510092;28;20040;-74
2021/08/30 11:37:36;;;;;;;0.00;0.00;;;;;;;;;;10500280;28;20401;-74
2021/08/30 11:42:39;;;;;;;0.00;0.00;;;;;;;;;;10503919;28;20052;-75
2021/08/30 11:47:46;;;;;;;0.00;0.00;;;;;;;;;;10491611;28;20044;-74
2021/08/30 11:52:48;;;;;;;0.00;0.00;;;;;;;;;;10510626;28;20055;-74
2021/08/30 11:58:00;;;;;;;0.00;0.00;;;;;;;;;;10515873;28;20050;-74
2021/08/30 12:03:12;;;;;;;0.00;0.00;;;;;;;;;;10513731;28;20564;-74
2021/08/30 12:08:15;;;;;;;0.00;0.00;;;;;;;;;;10518002;28;20047;-74
2021/08/30 12:13:33;;;;;;;0.00;0.00;;;;;;;;;;10509945;28;20128;-74
2021/08/30 12:18:47;;;;;;;0.00;0.00;;;;;;;;;;10485076;28;20041;-74
2021/08/30 12:23:51;;;;;;;0.00;0.00;;;;;;;;;;10508674;28;20053;-73
2021/08/30 12:28:54;;;;;;;0.00;0.00;;;;;;;;;;10524023;28;20032;-73
2021/08/30 12:34:08;;;;;;;0.00;0.00;;;;;;;;;;10514953;28;20387;-73
2021/08/30 12:39:12;;;;;;;0.00;0.00;;;;;;;;;;10520054;28;20048;-73
2021/08/30 12:44:15;;;;;;;0.00;0.00;;;;;;;;;;10510831;28;20391;-73
2021/08/30 12:49:19;;;;;;;0.00;0.00;;;;;;;;;;10515640;28;20040;-73
2021/08/30 12:54:21;;;;;;;0.00;0.00;;;;;;;;;;10514232;28;20046;-73
2021/08/30 12:59:25;;;;;;;0.00;0.00;;;;;;;;;;10501854;28;20048;-74
2021/08/30 13:04:29;;;;;;;0.00;0.00;;;;;;;;;;10497029;28;20074;-73
2021/08/30 13:09:32;;;;;;;0.00;0.00;;;;;;;;;;10518191;28;20052;-73
2021/08/30 13:14:35;;;;;;;0.00;0.00;;;;;;;;;;10518618;28;20056;-73
2021/08/30 13:19:39;;;;;;;0.00;0.00;;;;;;;;;;10515443;28;20062;-73
2021/08/30 13:24:41;;;;;;;0.00;0.00;;;;;;;;;;10508080;28;20043;-73
2021/08/30 13:29:45;;;;;;;0.00;0.00;;;;;;;;;;10509308;28;20074;-73
2021/08/30 13:34:49;;;;;;;0.00;0.00;;;;;;;;;;10513974;28;20059;-73
2021/08/30 13:39:52;;;;;;;0.00;0.00;;;;;;;;;;10500228;28;20042;-73
2021/08/30 13:44:56;;;;;;;0.00;0.00;;;;;;;;;;10516220;28;20043;-73
2021/08/30 13:50:02;;;;;;;0.00;0.00;;;;;;;;;;10513535;28;20041;-73
2021/08/30 13:55:05;;;;;;;0.00;0.00;;;;;;;;;;10507904;28;20044;-74
2021/08/30 14:00:10;;;;;;;0.00;0.00;;;;;;;;;;10511870;28;20515;-75
2021/08/30 14:05:18;;;;;;;0.00;0.00;;;;;;;;;;10521098;28;20398;-75
2021/08/30 14:10:21;;;;;;;0.00;0.00;;;;;;;;;;10514434;28;20101;-76
2021/08/30 14:15:25;;;;;;;0.00;0.00;;;;;;;;;;10522171;28;20048;-74
2021/08/30 14:20:29;;;;;;;0.00;0.00;;;;;;;;;;10512347;28;20048;-73
2021/08/30 14:25:33;;;;;;;0.00;0.00;;;;;;;;;;10508563;28;20469;-73
2021/08/30 14:30:37;;;;;;;0.00;0.00;;;;;;;;;;10501482;28;20064;-73
2021/08/30 14:35:41;;;;;;;0.00;0.00;;;;;;;;;;10492086;28;20061;-73
2021/08/30 14:40:44;;;;;;;0.00;0.00;;;;;;;;;;10514070;28;20045;-73
2021/08/30 14:45:48;;;;;;;0.00;0.00;;;;;;;;;;10493258;28;20044;-73
2021/08/30 14:50:54;;;;;;;0.00;0.00;;;;;;;;;;10526980;28;20040;-74
2021/08/30 14:55:57;;;;;;;0.00;0.00;;;;;;;;;;10497643;28;20044;-73
2021/08/30 15:01:00;;;;;;;0.00;0.00;;;;;;;;;;10509424;28;20043;-74
2021/08/30 15:06:05;;;;;;;0.00;0.00;;;;;;;;;;10520160;28;20496;-73
2021/08/30 15:11:09;;;;;;;0.00;0.00;;;;;;;;;;10514341;28;20502;-74
2021/08/30 15:16:12;;;;;;;0.00;0.00;;;;;;;;;;10515361;28;20036;-74
2021/08/30 15:21:25;;;;;;;0.00;0.00;;;;;;;;;;10517516;28;20048;-73
2021/08/30 15:26:29;;;;;;;0.00;0.00;;;;;;;;;;10517950;28;20066;-73
2021/08/30 15:31:37;;;;;;;0.00;0.00;;;;;;;;;;10499882;28;20075;-73
2021/08/30 15:36:41;;;;;;;0.00;0.00;;;;;;;;;;10511394;28;20041;-73
2021/08/30 15:41:51;;;;;;;0.00;0.00;;;;;;;;;;10517852;28;20408;-74
2021/08/30 15:46:54;;;;;;;0.00;0.00;;;;;;;;;;10496704;28;20405;-73
2021/08/30 15:52:00;;;;;;;0.00;0.00;;;;;;;;;;10511760;28;20386;-72
2021/08/30 15:57:05;;;;;;;0.00;0.00;;;;;;;;;;10514467;28;20044;-73
2021/08/30 16:02:09;;;;;;;0.00;0.00;;;;;;;;;;10510953;28;20367;-74
2021/08/30 16:07:14;;;;;;;0.00;0.00;;;;;;;;;;10516843;28;20140;-74
2021/08/30 16:12:17;;;;;;;0.00;0.00;;;;;;;;;;10513841;28;20406;-75
2021/08/30 16:17:21;;;;;;;0.00;0.00;;;;;;;;;;10518962;28;20097;-74
2021/08/30 16:22:28;;;;;;;0.00;0.00;;;;;;;;;;10494393;28;20044;-75
2021/08/30 16:27:34;;;;;;;0.00;0.00;;;;;;;;;;10517708;28;20048;-73
2021/08/30 16:32:37;;;;;;;0.00;0.00;;;;;;;;;;10516416;28;20048;-73
2021/08/30 16:37:42;;;;;;;0.00;0.00;;;;;;;;;;10528814;28;20151;-74
2021/08/30 16:42:47;;;;;;;0.00;0.00;;;;;;;;;;10502290;28;20482;-73
2021/08/30 16:47:51;;;;;;;0.00;0.00;;;;;;;;;;10516152;28;20045;-75
2021/08/30 16:52:54;;;;;;;0.00;0.00;;;;;;;;;;10503310;28;20143;-76
2021/08/30 16:57:58;;;;;;;0.00;0.00;;;;;;;;;;10521954;28;20078;-75
2021/08/30 17:03:02;;;;;;;0.00;0.00;;;;;;;;;;10505881;28;20060;-75
2021/08/30 17:08:06;;;;;;;0.00;0.00;;;;;;;;;;10515943;28;20074;-74
2021/08/30 17:13:11;;;;;;;0.00;0.00;;;;;;;;;;10507521;28;20056;-73
2021/08/30 17:18:14;;;;;;;0.00;0.00;;;;;;;;;;10506346;28;20119;-74
2021/08/30 17:23:18;;;;;;;0.00;0.00;;;;;;;;;;10504935;28;20852;-74
2021/08/30 17:28:23;;;;;;;0.00;0.00;;;;;;;;;;10488597;28;20449;-74
2021/08/30 17:33:26;;;;;;;0.00;0.00;;;;;;;;;;10488001;28;20458;-74
2021/08/30 17:38:29;;;;;;;0.00;0.00;;;;;;;;;;10492049;28;20135;-74
2021/08/30 17:43:34;;;;;;;0.00;0.00;;;;;;;;;;10488271;28;20519;-74
2021/08/30 17:48:38;;;;;;;0.00;0.00;;;;;;;;;;10487866;28;20032;-74
2021/08/30 17:53:42;;;;;;;0.00;0.00;;;;;;;;;;10507278;28;20157;-73
2021/08/30 17:58:47;;;;;;;0.00;0.00;;;;;;;;;;10488855;28;20044;-75
2021/08/30 18:03:50;;;;;;;0.00;0.00;;;;;;;;;;10493969;28;20048;-75
2021/08/30 18:08:53;;;;;;;0.00;0.00;;;;;;;;;;10510876;28;20085;-75
2021/08/30 18:13:57;;;;;;;0.00;0.00;;;;;;;;;;10515711;28;20067;-73
2021/08/30 18:19:00;;;;;;;0.00;0.00;;;;;;;;;;10514890;28;20426;-73
2021/08/30 18:24:03;;;;;;;0.00;0.00;;;;;;;;;;10498766;28;20047;-73
2021/08/30 18:29:09;;;;;;;0.00;0.00;;;;;;;;;;10520543;28;20036;-73
2021/08/30 18:34:11;;;;;;;0.00;0.00;;;;;;;;;;10513050;28;20048;-73
2021/08/30 18:39:15;;;;;;;0.00;0.00;;;;;;;;;;10480891;28;20997;-73
2021/08/30 18:44:19;;;;;;;0.00;0.00;;;;;;;;;;10506511;28;20052;-74
2021/08/30 18:49:22;;;;;;;0.00;0.00;;;;;;;;;;10510013;28;20529;-73
2021/08/30 18:54:26;;;;;;;0.00;0.00;;;;;;;;;;10509118;28;20166;-73
2021/08/30 18:59:31;;;;;;;0.05;0.00;;;;;;;;;;10515610;28;20040;-73
2021/08/30 19:04:34;;;;;;;0.00;0.00;;;;;;;;;;10508537;28;20054;-74
2021/08/30 19:09:36;;;;;;;0.00;0.00;;;;;;;;;;10489681;28;20061;-73
2021/08/30 19:14:41;;;;;;;0.00;0.00;;;;;;;;;;10487571;28;21490;-74
2021/08/30 19:19:44;;;;;;;0.00;0.00;;;;;;;;;;10513609;28;20040;-74
2021/08/30 19:24:49;;;;;;;0.00;0.00;;;;;;;;;;10505686;28;20110;-75
2021/08/30 19:29:54;;;;;;;0.00;0.00;;;;;;;;;;10505052;28;20045;-74
2021/08/30 19:34:59;;;;;;;0.00;0.00;;;;;;;;;;10511045;28;20494;-74
2021/08/30 19:40:02;;;;;;;0.00;0.00;;;;;;;;;;10518881;28;20054;-74
2021/08/30 19:45:07;;;;;;;0.00;0.00;;;;;;;;;;10497337;28;20048;-74
2021/08/30 19:50:12;;;;;;;0.00;0.00;;;;;;;;;;10495216;28;20044;-74
2021/08/30 19:55:15;;;;;;;0.00;0.00;;;;;;;;;;10511262;28;20045;-75
2021/08/30 20:00:21;;;;;;;0.00;0.00;;;;;;;;;;10497832;28;20043;-74
2021/08/30 20:05:24;;;;;;;0.00;0.00;;;;;;;;;;10497538;28;20056;-73
2021/08/30 20:10:27;;;;;;;0.00;0.00;;;;;;;;;;10494186;28;20127;-72
2021/08/30 20:15:32;;;;;;;0.00;0.00;;;;;;;;;;10516043;28;20170;-72
2021/08/30 20:20:35;;;;;;;0.00;0.00;;;;;;;;;;10505038;28;20467;-72
2021/08/30 20:25:39;;;;;;;0.00;0.00;;;;;;;;;;10512539;28;21070;-72
2021/08/30 20:30:44;;;;;;;0.00;0.00;;;;;;;;;;10498829;28;20306;-72
2021/08/30 20:35:50;;;;;;;0.00;0.00;;;;;;;;;;10494280;28;20048;-72
2021/08/30 20:40:56;;;;;;;0.00;0.00;;;;;;;;;;10515884;28;20494;-72
2021/08/30 20:46:01;;;;;;;0.00;0.00;;;;;;;;;;10507599;28;20044;-72
2021/08/30 20:51:04;;;;;;;0.00;0.00;;;;;;;;;;10511351;28;20037;-72
2021/08/30 20:56:07;;;;;;;0.00;0.00;;;;;;;;;;10502483;28;20048;-73
2021/08/30 21:01:11;;;;;;;0.03;0.03;;;;;;;;;;10505182;28;20043;-73
2021/08/30 21:06:15;;;;;;;0.00;0.00;;;;;;;;;;10506034;28;20119;-72
2021/08/30 21:11:18;;;;;;;0.00;0.00;;;;;;;;;;10492754;28;20506;-72
2021/08/30 21:16:22;;;;;;;0.00;0.00;;;;;;;;;;10510507;28;20048;-72
2021/08/30 21:21:25;;;;;;;0.00;0.00;;;;;;;;;;10514370;28;20086;-72
2021/08/30 21:26:28;;;;;;;0.00;0.00;;;;;;;;;;10489746;28;20066;-71
2021/08/30 21:31:32;;;;;;;0.00;0.00;;;;;;;;;;10492819;28;20072;-72
2021/08/30 21:36:35;;;;;;;0.00;0.00;;;;;;;;;;10493647;28;20105;-72
2021/08/30 21:41:38;;;;;;;0.00;0.00;;;;;;;;;;10519821;28;20155;-72
2021/08/30 21:46:43;;;;;;;0.00;0.00;;;;;;;;;;10515487;28;20054;-72
2021/08/30 21:51:46;;;;;;;0.00;0.00;;;;;;;;;;10504974;28;20040;-72
2021/08/30 21:56:49;;;;;;;0.00;0.00;;;;;;;;;;10517128;28;20458;-72
2021/08/30 22:01:55;;;;;;;0.00;0.00;;;;;;;;;;10492600;28;20044;-73
2021/08/30 22:06:58;;;;;;;0.00;0.00;;;;;;;;;;10496692;28;20072;-73
2021/08/30 22:12:01;;;;;;;0.00;0.00;;;;;;;;;;10517878;28;20497;-72
2021/08/30 22:17:06;;;;;;;0.00;0.00;;;;;;;;;;10515271;28;20492;-72
2021/08/30 22:22:09;;;;;;;0.00;0.00;;;;;;;;;;10511230;28;20074;-72
2021/08/30 22:27:12;;;;;;;0.00;0.00;;;;;;;;;;10497924;28;20413;-72
2021/08/30 22:32:16;;;;;;;0.00;0.00;;;;;;;;;;10510936;28;20119;-72
2021/08/30 22:37:19;;;;;;;0.00;0.00;;;;;;;;;;10485941;28;20049;-72
2021/08/30 22:42:22;;;;;;;0.00;0.00;;;;;;;;;;10490642;28;20040;-72
2021/08/30 22:47:26;;;;;;;0.00;0.00;;;;;;;;;;10491438;28;20060;-72
2021/08/30 22:52:30;;;;;;;0.10;0.00;;;;;;;;;;10508484;28;20528;-72
2021/08/30 22:57:33;;;;;;;0.00;0.00;;;;;;;;;;10508741;28;20123;-72
2021/08/30 23:02:40;;;;;;;0.00;0.00;;;;;;;;;;10492297;28;20063;-72
2021/08/30 23:07:43;;;;;;;0.00;0.00;;;;;;;;;;10506740;28;20585;-72
2021/08/30 23:12:46;;;;;;;0.00;0.00;;;;;;;;;;10518223;28;20041;-72
2021/08/30 23:17:51;;;;;;;0.00;0.00;;;;;;;;;;10514592;28;20040;-71
2021/08/30 23:22:54;;;;;;;0.00;0.00;;;;;;;;;;10518901;28;20131;-72
2021/08/30 23:27:57;;;;;;;0.00;0.00;;;;;;;;;;10498447;28;20512;-72
2021/08/30 23:33:03;;;;;;;0.00;0.00;;;;;;;;;;10516978;28;20047;-71
2021/08/30 23:38:06;;;;;;;0.00;0.00;;;;;;;;;;10514599;28;20048;-71
2021/08/30 23:43:10;;;;;;;0.00;0.00;;;;;;;;;;10512842;28;20033;-73
2021/08/30 23:48:14;;;;;;;0.00;0.00;;;;;;;;;;10493890;28;20063;-72
2021/08/30 23:53:17;;;;;;;0.00;0.00;;;;;;;;;;10511030;28;20089;-72
2021/08/30 23:58:20;;;;;;;0.00;0.00;;;;;;;;;;10515739;28;20044;-74
